sensor_id;sensor_type;location;lat;lon;timestamp;temperature;humidity
17879;DHT22;9065;51.050;13.758;2023-04-25T00:01:36;10.60;99.90
17879;DHT22;9065;51.050;13.758;2023-04-25T00:04:04;10.60;99.90
17879;DHT22;9065;51.050;13.758;2023-04-25T00:06:31;10.70;99.90
17879;DHT22;9065;51.050;13.758;2023-04-25T00:08:58;10.70;99.90
17879;DHT22;9065;51.050;13.758;2023-04-25T00:11:25;10.80;99.90
17879;DHT22;9065;51.050;13.758;2023-04-25T00:13:53;10.80;99.90
17879;DHT22;9065;51.050;13.758;2023-04-25T00:16:20;10.80;99.90
17879;DHT22;9065;51.050;13.758;2023-04-25T00:18:49;10.90;99.90
17879;DHT22;9065;51.050;13.758;2023-04-25T00:21:19;10.90;99.90
17879;DHT22;9065;51.050;13.758;2023-04-25T00:23:46;10.90;99.90
17879;DHT22;9065;51.050;13.758;2023-04-25T00:26:13;10.90;99.90
17879;DHT22;9065;51.050;13.758;2023-04-25T00:28:40;10.90;99.90
17879;DHT22;9065;51.050;13.758;2023-04-25T00:31:08;11.00;99.90
17879;DHT22;9065;51.050;13.758;2023-04-25T00:33:35;11.00;99.90
17879;DHT22;9065;51.050;13.758;2023-04-25T00:36:03;10.90;99.90
17879;DHT22;9065;51.050;13.758;2023-04-25T00:38:30;10.90;99.90
17879;DHT22;9065;51.050;13.758;2023-04-25T00:40:57;10.90;99.90
17879;DHT22;9065;51.050;13.758;2023-04-25T00:43:25;10.90;99.90
17879;DHT22;9065;51.050;13.758;2023-04-25T00:45:53;11.00;99.90
17879;DHT22;9065;51.050;13.758;2023-04-25T00:48:22;10.90;99.90
17879;DHT22;9065;51.050;13.758;2023-04-25T00:50:52;10.80;99.90
17879;DHT22;9065;51.050;13.758;2023-04-25T00:53:19;10.70;99.90
17879;DHT22;9065;51.050;13.758;2023-04-25T00:55:47;10.70;99.90
17879;DHT22;9065;51.050;13.758;2023-04-25T00:58:16;10.70;99.90
17879;DHT22;9065;51.050;13.758;2023-04-25T01:00:44;10.60;99.90
17879;DHT22;9065;51.050;13.758;2023-04-25T01:03:12;10.50;99.90
17879;DHT22;9065;51.050;13.758;2023-04-25T01:05:41;10.50;99.90
17879;DHT22;9065;51.050;13.758;2023-04-25T01:08:08;10.40;99.90
17879;DHT22;9065;51.050;13.758;2023-04-25T01:10:35;10.40;99.90
17879;DHT22;9065;51.050;13.758;2023-04-25T01:13:03;10.40;99.90
17879;DHT22;9065;51.050;13.758;2023-04-25T01:15:30;10.30;99.90
17879;DHT22;9065;51.050;13.758;2023-04-25T01:17:57;10.30;99.90
17879;DHT22;9065;51.050;13.758;2023-04-25T01:20:26;10.30;99.90
17879;DHT22;9065;51.050;13.758;2023-04-25T01:22:55;10.30;99.90
17879;DHT22;9065;51.050;13.758;2023-04-25T01:25:22;10.30;99.90
17879;DHT22;9065;51.050;13.758;2023-04-25T01:27:49;10.20;99.90
17879;DHT22;9065;51.050;13.758;2023-04-25T01:30:16;10.10;99.90
17879;DHT22;9065;51.050;13.758;2023-04-25T01:32:44;10.00;99.90
17879;DHT22;9065;51.050;13.758;2023-04-25T01:35:11;9.90;99.90
17879;DHT22;9065;51.050;13.758;2023-04-25T01:37:38;9.90;99.90
17879;DHT22;9065;51.050;13.758;2023-04-25T01:40:08;9.80;99.90
17879;DHT22;9065;51.050;13.758;2023-04-25T01:42:38;9.80;99.90
17879;DHT22;9065;51.050;13.758;2023-04-25T01:45:06;9.80;99.90
17879;DHT22;9065;51.050;13.758;2023-04-25T01:47:34;9.80;99.90
17879;DHT22;9065;51.050;13.758;2023-04-25T01:50:01;9.70;99.90
17879;DHT22;9065;51.050;13.758;2023-04-25T01:52:28;9.70;99.90
17879;DHT22;9065;51.050;13.758;2023-04-25T01:54:56;9.60;99.90
17879;DHT22;9065;51.050;13.758;2023-04-25T01:57:25;9.60;99.90
17879;DHT22;9065;51.050;13.758;2023-04-25T01:59:53;9.60;99.90
17879;DHT22;9065;51.050;13.758;2023-04-25T02:02:24;9.60;99.90
17879;DHT22;9065;51.050;13.758;2023-04-25T02:04:51;9.60;99.90
17879;DHT22;9065;51.050;13.758;2023-04-25T02:07:19;9.50;99.90
17879;DHT22;9065;51.050;13.758;2023-04-25T02:09:46;9.50;99.90
17879;DHT22;9065;51.050;13.758;2023-04-25T02:12:13;9.50;99.90
17879;DHT22;9065;51.050;13.758;2023-04-25T02:14:41;9.50;99.90
17879;DHT22;9065;51.050;13.758;2023-04-25T02:17:08;9.50;99.90
17879;DHT22;9065;51.050;13.758;2023-04-25T02:19:35;9.40;99.90
17879;DHT22;9065;51.050;13.758;2023-04-25T02:22:02;9.40;99.90
17879;DHT22;9065;51.050;13.758;2023-04-25T02:24:29;9.40;99.90
17879;DHT22;9065;51.050;13.758;2023-04-25T02:26:57;9.40;99.90
17879;DHT22;9065;51.050;13.758;2023-04-25T02:29:24;9.40;99.90
17879;DHT22;9065;51.050;13.758;2023-04-25T02:31:52;9.40;99.90
17879;DHT22;9065;51.050;13.758;2023-04-25T02:34:18;9.40;99.90
17879;DHT22;9065;51.050;13.758;2023-04-25T02:36:45;9.40;99.90
17879;DHT22;9065;51.050;13.758;2023-04-25T02:39:12;9.40;99.90
17879;DHT22;9065;51.050;13.758;2023-04-25T02:41:39;9.30;99.90
17879;DHT22;9065;51.050;13.758;2023-04-25T02:44:06;9.30;99.90
17879;DHT22;9065;51.050;13.758;2023-04-25T02:46:32;9.30;99.90
17879;DHT22;9065;51.050;13.758;2023-04-25T02:49:00;9.20;99.90
17879;DHT22;9065;51.050;13.758;2023-04-25T02:51:27;9.20;99.90
17879;DHT22;9065;51.050;13.758;2023-04-25T02:53:54;9.10;99.90
17879;DHT22;9065;51.050;13.758;2023-04-25T02:56:20;9.10;99.90
17879;DHT22;9065;51.050;13.758;2023-04-25T02:58:47;9.10;99.90
17879;DHT22;9065;51.050;13.758;2023-04-25T03:01:14;9.00;99.90
17879;DHT22;9065;51.050;13.758;2023-04-25T03:03:41;9.00;99.90
17879;DHT22;9065;51.050;13.758;2023-04-25T03:06:09;9.10;99.90
17879;DHT22;9065;51.050;13.758;2023-04-25T03:08:36;9.10;99.90
17879;DHT22;9065;51.050;13.758;2023-04-25T03:11:03;9.00;99.90
17879;DHT22;9065;51.050;13.758;2023-04-25T03:13:29;9.00;99.90
17879;DHT22;9065;51.050;13.758;2023-04-25T03:15:56;9.00;99.90
17879;DHT22;9065;51.050;13.758;2023-04-25T03:18:23;9.00;99.90
17879;DHT22;9065;51.050;13.758;2023-04-25T03:20:50;8.90;99.90
17879;DHT22;9065;51.050;13.758;2023-04-25T03:23:18;8.90;99.90
17879;DHT22;9065;51.050;13.758;2023-04-25T03:25:45;8.80;99.90
17879;DHT22;9065;51.050;13.758;2023-04-25T03:28:12;8.80;99.90
17879;DHT22;9065;51.050;13.758;2023-04-25T03:30:39;8.80;99.90
17879;DHT22;9065;51.050;13.758;2023-04-25T03:33:05;8.80;99.90
17879;DHT22;9065;51.050;13.758;2023-04-25T03:35:32;8.80;99.90
17879;DHT22;9065;51.050;13.758;2023-04-25T03:37:59;8.80;99.90
17879;DHT22;9065;51.050;13.758;2023-04-25T03:40:27;8.80;99.90
17879;DHT22;9065;51.050;13.758;2023-04-25T03:42:54;8.80;99.90
17879;DHT22;9065;51.050;13.758;2023-04-25T03:45:21;8.70;99.90
17879;DHT22;9065;51.050;13.758;2023-04-25T03:47:48;8.70;99.90
17879;DHT22;9065;51.050;13.758;2023-04-25T03:50:15;8.70;99.90
17879;DHT22;9065;51.050;13.758;2023-04-25T03:52:42;8.70;99.90
17879;DHT22;9065;51.050;13.758;2023-04-25T03:55:09;8.80;99.90
17879;DHT22;9065;51.050;13.758;2023-04-25T03:57:37;8.70;99.90
17879;DHT22;9065;51.050;13.758;2023-04-25T04:00:05;8.80;99.90
17879;DHT22;9065;51.050;13.758;2023-04-25T04:02:33;8.80;99.90
17879;DHT22;9065;51.050;13.758;2023-04-25T04:05:01;8.70;99.90
17879;DHT22;9065;51.050;13.758;2023-04-25T04:07:28;8.70;99.90
17879;DHT22;9065;51.050;13.758;2023-04-25T04:09:57;8.70;99.90
17879;DHT22;9065;51.050;13.758;2023-04-25T04:12:24;8.80;99.90
17879;DHT22;9065;51.050;13.758;2023-04-25T04:14:52;8.80;99.90
17879;DHT22;9065;51.050;13.758;2023-04-25T04:17:19;8.70;99.90
17879;DHT22;9065;51.050;13.758;2023-04-25T04:19:46;8.70;99.90
17879;DHT22;9065;51.050;13.758;2023-04-25T04:22:12;8.70;99.90
17879;DHT22;9065;51.050;13.758;2023-04-25T04:24:40;8.80;99.90
17879;DHT22;9065;51.050;13.758;2023-04-25T04:27:09;8.90;99.90
17879;DHT22;9065;51.050;13.758;2023-04-25T04:29:38;9.00;99.90
17879;DHT22;9065;51.050;13.758;2023-04-25T04:32:06;9.00;99.90
17879;DHT22;9065;51.050;13.758;2023-04-25T04:34:34;9.00;99.90
17879;DHT22;9065;51.050;13.758;2023-04-25T04:37:01;9.00;99.90
17879;DHT22;9065;51.050;13.758;2023-04-25T04:39:28;9.10;99.90
17879;DHT22;9065;51.050;13.758;2023-04-25T04:41:55;9.10;99.90
17879;DHT22;9065;51.050;13.758;2023-04-25T04:44:21;9.10;99.90
17879;DHT22;9065;51.050;13.758;2023-04-25T04:46:48;9.10;99.90
17879;DHT22;9065;51.050;13.758;2023-04-25T04:49:18;9.10;99.90
17879;DHT22;9065;51.050;13.758;2023-04-25T04:51:45;9.10;99.90
17879;DHT22;9065;51.050;13.758;2023-04-25T04:54:12;9.20;99.90
17879;DHT22;9065;51.050;13.758;2023-04-25T04:56:39;9.10;99.90
17879;DHT22;9065;51.050;13.758;2023-04-25T04:59:07;9.10;99.90
17879;DHT22;9065;51.050;13.758;2023-04-25T05:01:34;9.10;99.90
17879;DHT22;9065;51.050;13.758;2023-04-25T05:04:02;9.10;99.90
17879;DHT22;9065;51.050;13.758;2023-04-25T05:06:54;9.20;99.90
17879;DHT22;9065;51.050;13.758;2023-04-25T05:09:21;9.20;99.90
17879;DHT22;9065;51.050;13.758;2023-04-25T05:11:51;9.20;99.90
17879;DHT22;9065;51.050;13.758;2023-04-25T05:14:19;9.30;99.90
17879;DHT22;9065;51.050;13.758;2023-04-25T05:16:47;9.30;99.90
17879;DHT22;9065;51.050;13.758;2023-04-25T05:19:14;9.30;99.90
17879;DHT22;9065;51.050;13.758;2023-04-25T05:21:41;9.40;99.90
17879;DHT22;9065;51.050;13.758;2023-04-25T05:24:09;9.50;99.90
17879;DHT22;9065;51.050;13.758;2023-04-25T05:26:37;9.60;99.90
17879;DHT22;9065;51.050;13.758;2023-04-25T05:29:28;9.60;99.90
17879;DHT22;9065;51.050;13.758;2023-04-25T05:31:55;9.60;99.90
17879;DHT22;9065;51.050;13.758;2023-04-25T05:34:22;9.60;99.90
17879;DHT22;9065;51.050;13.758;2023-04-25T05:36:54;9.60;99.90
17879;DHT22;9065;51.050;13.758;2023-04-25T05:39:25;9.60;99.90
17879;DHT22;9065;51.050;13.758;2023-04-25T05:41:54;9.70;99.90
17879;DHT22;9065;51.050;13.758;2023-04-25T05:44:22;9.70;99.90
17879;DHT22;9065;51.050;13.758;2023-04-25T05:46:50;9.70;99.90
17879;DHT22;9065;51.050;13.758;2023-04-25T05:49:17;9.80;99.90
17879;DHT22;9065;51.050;13.758;2023-04-25T05:51:45;9.80;99.90
17879;DHT22;9065;51.050;13.758;2023-04-25T05:54:35;9.90;99.90
17879;DHT22;9065;51.050;13.758;2023-04-25T05:57:22;9.90;99.90
17879;DHT22;9065;51.050;13.758;2023-04-25T06:00:18;9.90;99.90
17879;DHT22;9065;51.050;13.758;2023-04-25T06:05:46;10.10;99.90
17879;DHT22;9065;51.050;13.758;2023-04-25T06:08:23;10.50;99.90
17879;DHT22;9065;51.050;13.758;2023-04-25T06:11:02;11.00;99.90
17879;DHT22;9065;51.050;13.758;2023-04-25T06:13:30;11.40;99.90
17879;DHT22;9065;51.050;13.758;2023-04-25T06:16:05;11.70;99.90
17879;DHT22;9065;51.050;13.758;2023-04-25T06:18:57;11.90;99.90
17879;DHT22;9065;51.050;13.758;2023-04-25T06:21:52;12.20;99.90
17879;DHT22;9065;51.050;13.758;2023-04-25T06:24:38;12.40;99.90
17879;DHT22;9065;51.050;13.758;2023-04-25T06:27:17;12.70;99.90
17879;DHT22;9065;51.050;13.758;2023-04-25T06:29:53;12.70;99.90
17879;DHT22;9065;51.050;13.758;2023-04-25T06:32:44;12.90;99.90
17879;DHT22;9065;51.050;13.758;2023-04-25T06:35:28;13.00;99.90
17879;DHT22;9065;51.050;13.758;2023-04-25T06:38:28;13.50;99.90
17879;DHT22;9065;51.050;13.758;2023-04-25T06:41:22;14.00;99.90
17879;DHT22;9065;51.050;13.758;2023-04-25T06:43:53;13.80;99.90
17879;DHT22;9065;51.050;13.758;2023-04-25T06:46:41;13.80;99.90
17879;DHT22;9065;51.050;13.758;2023-04-25T06:49:29;14.00;99.90
17879;DHT22;9065;51.050;13.758;2023-04-25T06:51:59;14.20;99.90
17879;DHT22;9065;51.050;13.758;2023-04-25T06:54:33;14.30;99.90
17879;DHT22;9065;51.050;13.758;2023-04-25T06:57:15;14.30;99.90
17879;DHT22;9065;51.050;13.758;2023-04-25T06:59:56;14.70;99.90
17879;DHT22;9065;51.050;13.758;2023-04-25T07:02:30;14.90;99.90
17879;DHT22;9065;51.050;13.758;2023-04-25T07:07:55;14.30;99.90
17879;DHT22;9065;51.050;13.758;2023-04-25T07:10:25;14.50;99.90
17879;DHT22;9065;51.050;13.758;2023-04-25T07:13:18;14.00;99.90
17879;DHT22;9065;51.050;13.758;2023-04-25T07:15:55;14.50;99.90
17879;DHT22;9065;51.050;13.758;2023-04-25T07:18:47;15.20;99.90
17879;DHT22;9065;51.050;13.758;2023-04-25T07:21:40;16.00;99.90
17879;DHT22;9065;51.050;13.758;2023-04-25T07:25:36;16.40;99.90
17879;DHT22;9065;51.050;13.758;2023-04-25T07:27:35;16.20;99.90
17879;DHT22;9065;51.050;13.758;2023-04-25T07:30:24;15.70;99.90
17879;DHT22;9065;51.050;13.758;2023-04-25T07:32:57;15.30;99.90
17879;DHT22;9065;51.050;13.758;2023-04-25T07:35:37;15.10;99.90
17879;DHT22;9065;51.050;13.758;2023-04-25T07:38:06;14.80;99.90
17879;DHT22;9065;51.050;13.758;2023-04-25T07:40:38;14.30;99.90
17879;DHT22;9065;51.050;13.758;2023-04-25T07:43:14;14.20;99.90
17879;DHT22;9065;51.050;13.758;2023-04-25T07:45:56;14.60;99.90
17879;DHT22;9065;51.050;13.758;2023-04-25T07:48:34;14.20;99.90
17879;DHT22;9065;51.050;13.758;2023-04-25T07:51:03;14.90;99.90
17879;DHT22;9065;51.050;13.758;2023-04-25T07:53:45;16.40;99.90
17879;DHT22;9065;51.050;13.758;2023-04-25T07:56:19;16.90;99.90
17879;DHT22;9065;51.050;13.758;2023-04-25T07:58:53;16.70;99.90
17879;DHT22;9065;51.050;13.758;2023-04-25T08:01:35;15.80;99.90
17879;DHT22;9065;51.050;13.758;2023-04-25T08:04:31;16.70;99.90
17879;DHT22;9065;51.050;13.758;2023-04-25T08:07:06;17.30;99.90
17879;DHT22;9065;51.050;13.758;2023-04-25T08:09:44;18.60;99.90
17879;DHT22;9065;51.050;13.758;2023-04-25T08:12:15;20.10;99.90
17879;DHT22;9065;51.050;13.758;2023-04-25T08:14:45;19.50;99.90
17879;DHT22;9065;51.050;13.758;2023-04-25T08:17:17;20.00;99.90
17879;DHT22;9065;51.050;13.758;2023-04-25T08:20:06;19.40;99.90
17879;DHT22;9065;51.050;13.758;2023-04-25T08:22:49;18.60;99.90
17879;DHT22;9065;51.050;13.758;2023-04-25T08:25:21;16.90;99.90
17879;DHT22;9065;51.050;13.758;2023-04-25T08:27:53;15.50;99.90
17879;DHT22;9065;51.050;13.758;2023-04-25T08:31:01;14.70;99.90
17879;DHT22;9065;51.050;13.758;2023-04-25T08:33:41;15.40;99.90
17879;DHT22;9065;51.050;13.758;2023-04-25T08:36:21;15.80;99.90
17879;DHT22;9065;51.050;13.758;2023-04-25T08:38:48;15.10;99.90
17879;DHT22;9065;51.050;13.758;2023-04-25T08:41:16;14.70;99.90
17879;DHT22;9065;51.050;13.758;2023-04-25T08:43:44;13.90;99.90
17879;DHT22;9065;51.050;13.758;2023-04-25T08:46:17;13.50;99.90
17879;DHT22;9065;51.050;13.758;2023-04-25T08:48:46;13.20;99.90
17879;DHT22;9065;51.050;13.758;2023-04-25T08:51:22;12.90;99.90
17879;DHT22;9065;51.050;13.758;2023-04-25T08:54:10;12.80;99.90
17879;DHT22;9065;51.050;13.758;2023-04-25T08:56:45;13.00;99.90
17879;DHT22;9065;51.050;13.758;2023-04-25T08:59:35;13.20;99.90
17879;DHT22;9065;51.050;13.758;2023-04-25T09:02:15;13.30;99.90
17879;DHT22;9065;51.050;13.758;2023-04-25T09:04:48;13.40;99.90
17879;DHT22;9065;51.050;13.758;2023-04-25T09:07:24;13.40;99.90
17879;DHT22;9065;51.050;13.758;2023-04-25T09:09:54;13.20;99.90
17879;DHT22;9065;51.050;13.758;2023-04-25T09:12:26;13.30;99.90
17879;DHT22;9065;51.050;13.758;2023-04-25T09:15:12;13.40;99.90
17879;DHT22;9065;51.050;13.758;2023-04-25T09:18:24;13.30;99.90
17879;DHT22;9065;51.050;13.758;2023-04-25T09:21:41;13.40;99.90
17879;DHT22;9065;51.050;13.758;2023-04-25T09:24:47;13.70;99.90
17879;DHT22;9065;51.050;13.758;2023-04-25T09:27:20;13.80;99.90
17879;DHT22;9065;51.050;13.758;2023-04-25T09:30:05;13.60;99.90
17879;DHT22;9065;51.050;13.758;2023-04-25T09:32:58;13.40;99.90
17879;DHT22;9065;51.050;13.758;2023-04-25T09:41:30;12.70;99.90
17879;DHT22;9065;51.050;13.758;2023-04-25T09:44:07;12.60;99.90
17879;DHT22;9065;51.050;13.758;2023-04-25T09:46:36;12.50;99.90
17879;DHT22;9065;51.050;13.758;2023-04-25T09:49:20;12.40;99.90
17879;DHT22;9065;51.050;13.758;2023-04-25T09:51:59;12.30;99.90
17879;DHT22;9065;51.050;13.758;2023-04-25T09:54:37;12.20;99.90
17879;DHT22;9065;51.050;13.758;2023-04-25T09:57:16;11.90;99.90
17879;DHT22;9065;51.050;13.758;2023-04-25T09:59:55;11.90;99.90
17879;DHT22;9065;51.050;13.758;2023-04-25T10:02:34;11.90;99.90
17879;DHT22;9065;51.050;13.758;2023-04-25T10:05:06;12.00;99.90
17879;DHT22;9065;51.050;13.758;2023-04-25T10:07:36;12.00;99.90
17879;DHT22;9065;51.050;13.758;2023-04-25T10:10:15;12.20;99.90
17879;DHT22;9065;51.050;13.758;2023-04-25T10:19:41;13.10;99.90
17879;DHT22;9065;51.050;13.758;2023-04-25T10:22:41;13.30;99.90
17879;DHT22;9065;51.050;13.758;2023-04-25T10:25:28;13.50;99.90
17879;DHT22;9065;51.050;13.758;2023-04-25T10:28:02;13.50;99.90
17879;DHT22;9065;51.050;13.758;2023-04-25T10:30:59;13.40;99.90
17879;DHT22;9065;51.050;13.758;2023-04-25T10:33:33;13.30;99.90
17879;DHT22;9065;51.050;13.758;2023-04-25T10:36:11;13.10;99.90
17879;DHT22;9065;51.050;13.758;2023-04-25T10:38:43;13.00;99.90
17879;DHT22;9065;51.050;13.758;2023-04-25T10:41:13;13.00;99.90
17879;DHT22;9065;51.050;13.758;2023-04-25T10:43:43;13.00;99.90
17879;DHT22;9065;51.050;13.758;2023-04-25T10:46:15;13.10;99.90
17879;DHT22;9065;51.050;13.758;2023-04-25T10:48:53;13.10;99.90
